Time;durP1;ratioP1;P1;durP2;ratioP2;P2;SDS_P1;SDS_P2;PMS_P1;PMS_P2;Temp;Humidity;BMP_temperature;BMP_pressure;BME280_temperature;BME280_humidity;BME280_pressure;Samples;Min_cycle;Max_cycle;Signal;HPM_P1;HPM_P2
2023/04/08 00:01:33;;;;;;;4.30;2.17;;;;;;;8.73;88.58;102399.31;5032303;27;98375;-30
2023/04/08 00:03:58;;;;;;;2.38;1.45;;;;;;;8.74;88.35;102401.06;5032842;27;97234;-29
2023/04/08 00:06:26;;;;;;;4.30;2.17;;;;;;;8.73;88.84;102402.00;5032245;27;97022;-30
2023/04/08 00:08:51;;;;;;;6.30;2.10;;;;;;;8.72;88.62;102402.94;5030617;28;96770;-30
2023/04/08 00:11:16;;;;;;;4.72;2.28;;;;;;;8.73;88.60;102401.13;5032248;27;97372;-29
2023/04/08 00:13:42;;;;;;;5.93;2.10;;;;;;;8.71;88.62;102399.34;5032132;27;110568;-30
2023/04/08 00:16:07;;;;;;;3.13;2.10;;;;;;;8.72;88.72;102400.22;5031866;27;96662;-29
2023/04/08 00:18:32;;;;;;;9.20;2.03;;;;;;;8.71;88.75;102402.03;5032000;28;101873;-29
2023/04/08 00:20:57;;;;;;;6.93;2.90;;;;;;;8.72;88.73;102400.22;5031770;27;97959;-29
2023/04/08 00:23:23;;;;;;;4.65;2.47;;;;;;;8.73;88.56;102407.41;5031768;27;97326;-29
2023/04/08 00:25:48;;;;;;;3.08;1.77;;;;;;;8.75;88.59;102405.56;5032131;27;96619;-29
2023/04/08 00:28:13;;;;;;;3.08;2.00;;;;;;;8.71;89.06;102395.75;5031879;27;96795;-29
2023/04/08 00:30:39;;;;;;;5.18;2.40;;;;;;;8.74;88.92;102405.59;5031565;28;109572;-29
2023/04/08 00:33:04;;;;;;;3.33;2.33;;;;;;;8.71;89.41;102399.34;5032130;28;97826;-29
2023/04/08 00:35:29;;;;;;;3.83;2.38;;;;;;;8.69;89.11;102405.72;5031896;27;96548;-29
2023/04/08 00:37:54;;;;;;;7.05;3.28;;;;;;;8.69;89.60;102409.31;5032147;27;105801;-30
2023/04/08 00:40:20;;;;;;;4.38;2.83;;;;;;;8.69;89.31;102412.00;5029623;28;121997;-29
2023/04/08 00:42:45;;;;;;;6.40;3.03;;;;;;;8.70;89.49;102408.41;5031972;28;97892;-30
2023/04/08 00:45:12;;;;;;;5.18;2.42;;;;;;;8.68;89.33;102399.44;5030205;28;97490;-29
2023/04/08 00:47:37;;;;;;;5.10;2.88;;;;;;;8.71;89.24;102403.88;5030480;28;96774;-30
2023/04/08 00:50:03;;;;;;;4.97;2.85;;;;;;;8.73;89.32;102417.34;5031783;27;98071;-29
2023/04/08 00:52:28;;;;;;;7.82;2.92;;;;;;;8.70;89.02;102408.41;5030332;28;99127;-29
2023/04/08 00:54:54;;;;;;;3.95;2.45;;;;;;;8.73;88.96;102412.81;5031650;27;96472;-29
2023/04/08 00:57:20;;;;;;;8.40;3.03;;;;;;;8.72;89.02;102408.34;5030377;28;96785;-30
2023/04/08 00:59:45;;;;;;;4.20;2.83;;;;;;;8.73;89.12;102407.41;5031666;27;97912;-29
2023/04/08 01:02:32;;;;;;;4.78;3.22;;;;;;;8.73;89.09;102417.34;5032254;27;97196;-29
2023/04/08 01:05:03;;;;;;;4.68;2.65;;;;;;;8.71;89.67;102417.38;5031978;28;96471;-29
2023/04/08 01:07:32;;;;;;;4.20;2.95;;;;;;;8.71;89.18;102426.38;5031742;28;96590;-30
2023/04/08 01:10:06;;;;;;;4.25;2.42;;;;;;;8.71;89.16;102423.66;5030957;27;97906;-29
2023/04/08 01:12:38;;;;;;;6.03;2.80;;;;;;;8.69;89.61;102416.53;5030071;28;102200;-30
2023/04/08 01:15:05;;;;;;;;;;;;;;;8.69;89.98;102413.84;5030591;28;97190;-29
2023/04/08 01:17:32;;;;;;;4.05;2.58;;;;;;;8.67;89.80;102416.56;5031865;28;96744;-29
2023/04/08 01:20:00;;;;;;;4.97;3.00;;;;;;;8.67;89.54;102418.38;5030734;27;100657;-29
2023/04/08 01:22:32;;;;;;;7.90;3.70;;;;;;;8.65;89.88;102414.84;5033097;28;100757;-29
2023/04/08 01:25:06;;;;;;;5.17;3.03;;;;;;;8.69;89.57;102421.94;5035051;27;97069;-30
2023/04/08 01:27:33;;;;;;;6.65;3.53;;;;;;;8.69;89.70;102421.94;5035330;27;96634;-30
2023/04/08 01:30:00;;;;;;;6.80;3.45;;;;;;;8.67;89.82;102415.69;5033232;27;101383;-30
2023/04/08 01:32:27;;;;;;;9.20;3.25;;;;;;;8.67;89.70;102412.97;5033373;28;100857;-30
2023/04/08 01:34:55;;;;;;;7.55;3.72;;;;;;;8.70;89.75;102416.50;5032870;28;96800;-30
2023/04/08 01:37:21;;;;;;;5.60;3.38;;;;;;;8.69;89.54;102417.41;5032991;28;97260;-29
2023/04/08 01:39:48;;;;;;;7.78;3.05;;;;;;;8.70;89.62;102413.81;5033022;28;101290;-30
2023/04/08 01:42:14;;;;;;;7.65;4.55;;;;;;;8.69;89.67;102419.22;5032981;28;100801;-30
2023/04/08 01:44:41;;;;;;;6.25;3.88;;;;;;;8.70;89.94;102423.72;5034726;28;96685;-29
2023/04/08 01:47:09;;;;;;;6.85;4.07;;;;;;;8.67;89.42;102415.69;5033059;28;96588;-29
2023/04/08 01:49:35;;;;;;;6.80;3.85;;;;;;;8.65;89.81;102417.53;5032902;28;100848;-31
2023/04/08 01:52:01;;;;;;;10.45;4.53;;;;;;;8.68;89.81;102425.59;5033329;28;100882;-29
2023/04/08 01:54:26;;;;;;;10.27;3.97;;;;;;;8.70;89.81;102432.72;5033216;27;96778;-29
2023/04/08 01:56:55;;;;;;;7.30;3.78;;;;;;;8.70;89.89;102432.72;5034570;27;96778;-31
2023/04/08 01:59:22;;;;;;;7.63;4.07;;;;;;;8.69;90.00;102428.22;5033759;27;97916;-29
2023/04/08 02:01:50;;;;;;;8.20;4.40;;;;;;;8.69;90.06;102428.22;5032777;28;100878;-30
2023/04/08 02:04:16;;;;;;;7.63;3.67;;;;;;;8.67;90.63;102426.50;5032835;28;96560;-29
2023/04/08 02:06:41;;;;;;;6.75;3.83;;;;;;;8.63;90.48;102423.00;5034287;27;96666;-29
2023/04/08 02:09:07;;;;;;;7.60;4.63;;;;;;;8.68;90.62;102422.88;5033848;28;99469;-29
2023/04/08 02:11:32;;;;;;;7.53;4.22;;;;;;;8.66;90.12;102419.34;5034193;28;97928;-30
2023/04/08 02:13:58;;;;;;;8.50;4.78;;;;;;;8.66;90.15;102430.13;5034221;27;96564;-31
2023/04/08 02:16:28;;;;;;;6.65;3.97;;;;;;;8.67;90.30;102435.47;5034626;27;96771;-29
2023/04/08 02:19:28;;;;;;;7.45;4.43;;;;;;;8.65;90.03;102428.34;5034117;27;97527;-30
2023/04/08 02:22:04;;;;;;;9.05;4.13;;;;;;;8.67;89.96;102424.66;5031997;27;100767;-31
2023/04/08 02:24:32;;;;;;;7.35;4.00;;;;;;;8.67;89.98;102421.09;5033506;27;96460;-29
2023/04/08 02:26:59;;;;;;;13.00;5.32;;;;;;;8.70;89.88;102435.41;5032165;28;97293;-30
2023/04/08 02:29:26;;;;;;;10.02;4.25;;;;;;;8.68;89.93;102426.47;5032211;27;101164;-29
2023/04/08 02:31:53;;;;;;;13.20;5.32;;;;;;;8.67;89.88;102430.06;5032016;28;100991;-30
2023/04/08 02:34:20;;;;;;;9.48;4.38;;;;;;;8.67;90.19;102423.78;5032489;28;96790;-29
2023/04/08 02:36:46;;;;;;;10.70;4.82;;;;;;;8.66;90.16;102427.44;5032381;28;97046;-30
2023/04/08 02:39:12;;;;;;;7.18;4.32;;;;;;;8.65;90.38;102426.56;5033641;27;97930;-30
2023/04/08 02:41:37;;;;;;;9.88;4.55;;;;;;;8.66;90.45;102422.91;5033483;28;99639;-29
2023/04/08 02:44:03;;;;;;;7.13;4.03;;;;;;;8.61;90.87;102430.25;5033723;27;96618;-29
2023/04/08 02:46:28;;;;;;;7.00;4.00;;;;;;;8.62;90.69;102432.03;5033892;28;96793;-29
2023/04/08 02:48:53;;;;;;;10.15;4.97;;;;;;;8.62;90.48;102436.53;5032490;28;114256;-30
2023/04/08 02:51:19;;;;;;;13.02;4.72;;;;;;;8.60;90.20;102431.16;5033536;27;100879;-30
2023/04/08 02:53:44;;;;;;;10.80;4.82;;;;;;;8.62;90.82;102439.25;5033647;27;96635;-29
2023/04/08 02:56:10;;;;;;;7.93;4.55;;;;;;;8.61;90.67;102441.06;5033188;27;102046;-29
2023/04/08 02:58:35;;;;;;;11.68;4.40;;;;;;;8.62;90.60;102440.13;5031645;28;101372;-29
2023/04/08 03:01:01;;;;;;;8.75;4.68;;;;;;;8.60;90.41;102439.28;5033334;27;98688;-31
2023/04/08 03:03:28;;;;;;;9.90;4.88;;;;;;;8.61;90.48;102449.16;5033612;27;96563;-29
2023/04/08 03:05:54;;;;;;;9.57;5.20;;;;;;;8.63;90.58;102446.44;5033672;27;96842;-29
2023/04/08 03:08:20;;;;;;;9.23;5.05;;;;;;;8.62;90.62;102450.03;5031631;28;100729;-29
2023/04/08 03:10:45;;;;;;;5.95;3.65;;;;;;;8.59;90.41;102445.63;5033165;27;97814;-31
2023/04/08 03:13:11;;;;;;;8.50;4.47;;;;;;;8.58;90.44;102451.06;5032403;28;103234;-29
2023/04/08 03:15:36;;;;;;;7.03;3.88;;;;;;;8.58;90.39;102446.56;5033029;27;96844;-29
2023/04/08 03:18:03;;;;;;;8.35;4.38;;;;;;;8.60;90.42;102443.78;5033004;28;99358;-29
2023/04/08 03:20:28;;;;;;;8.75;3.92;;;;;;;8.59;90.82;102456.44;5031684;28;100828;-30
2023/04/08 03:22:53;;;;;;;11.38;4.85;;;;;;;8.57;90.70;102457.41;5032592;27;96739;-30
2023/04/08 03:25:18;;;;;;;10.13;4.95;;;;;;;8.59;90.64;102459.13;5032586;28;108314;-30
2023/04/08 03:27:44;;;;;;;7.70;4.32;;;;;;;8.58;90.57;102461.84;5032399;27;97508;-29
2023/04/08 03:30:09;;;;;;;8.95;5.45;;;;;;;8.57;90.39;102465.50;5033095;28;111152;-31
2023/04/08 03:32:35;;;;;;;9.88;4.93;;;;;;;8.57;90.62;102462.78;5033010;27;96546;-30
2023/04/08 03:35:00;;;;;;;6.50;4.03;;;;;;;8.55;90.65;102460.13;5033109;27;96865;-31
2023/04/08 03:37:26;;;;;;;9.85;5.18;;;;;;;8.58;90.65;102464.56;5032408;28;97423;-30
2023/04/08 03:39:51;;;;;;;11.18;4.80;;;;;;;8.55;90.96;102460.13;5031242;28;99135;-29
2023/04/08 03:42:17;;;;;;;7.75;4.88;;;;;;;8.55;90.90;102468.22;5031927;27;96827;-30
2023/04/08 03:44:42;;;;;;;9.77;4.90;;;;;;;8.52;90.94;102471.03;5031314;28;97104;-29
2023/04/08 03:47:07;;;;;;;8.57;4.93;;;;;;;8.52;90.81;102470.16;5031993;28;111369;-29
2023/04/08 03:49:33;;;;;;;8.90;4.43;;;;;;;8.53;91.05;102471.91;5032446;27;99136;-30
2023/04/08 03:51:58;;;;;;;8.80;4.80;;;;;;;8.53;90.92;102486.28;5032817;27;96520;-30
2023/04/08 03:54:23;;;;;;;9.60;5.32;;;;;;;8.50;90.90;102468.34;5032876;28;101571;-31
2023/04/08 03:56:49;;;;;;;8.15;4.78;;;;;;;8.50;91.14;102473.75;5032556;27;97427;-29
2023/04/08 03:59:14;;;;;;;8.60;4.25;;;;;;;8.49;91.14;102474.69;5032635;27;97771;-29
2023/04/08 04:01:40;;;;;;;10.23;4.65;;;;;;;8.44;90.88;102473.94;5032225;27;96437;-30
2023/04/08 04:04:05;;;;;;;7.90;4.25;;;;;;;8.46;91.13;102481.97;5032569;27;96881;-29
2023/04/08 04:06:31;;;;;;;7.13;3.83;;;;;;;8.44;91.05;102484.75;5032181;28;99206;-29
2023/04/08 04:08:56;;;;;;;9.95;5.22;;;;;;;8.43;90.72;102484.75;5032080;27;98702;-29
2023/04/08 04:11:21;;;;;;;6.90;4.25;;;;;;;8.41;91.06;102479.38;5032492;27;96586;-31
2023/04/08 04:13:47;;;;;;;8.98;4.03;;;;;;;8.41;91.46;102481.22;5032324;28;96835;-30
2023/04/08 04:16:13;;;;;;;9.50;4.80;;;;;;;8.39;91.24;102474.94;5030794;28;101318;-29
2023/04/08 04:18:38;;;;;;;7.95;4.07;;;;;;;8.40;91.19;102484.84;5032891;27;97249;-29
2023/04/08 04:21:07;;;;;;;12.45;4.55;;;;;;;8.39;90.98;102485.72;5032336;28;96660;-30
2023/04/08 04:23:33;;;;;;;7.78;4.25;;;;;;;8.41;91.37;102492.00;5030537;28;96840;-30
2023/04/08 04:25:58;;;;;;;9.18;4.50;;;;;;;8.36;91.24;102494.78;5030146;28;100740;-29
2023/04/08 04:28:24;;;;;;;8.45;3.88;;;;;;;8.36;91.28;102497.50;5031511;28;100488;-32
2023/04/08 04:30:49;;;;;;;7.18;4.28;;;;;;;8.36;91.24;102502.00;5032323;27;96447;-29
2023/04/08 04:33:14;;;;;;;9.80;4.10;;;;;;;8.37;91.13;102503.81;5032021;27;96941;-30
2023/04/08 04:35:40;;;;;;;9.15;4.80;;;;;;;8.37;91.21;102507.38;5031766;27;99451;-30
2023/04/08 04:38:09;;;;;;;10.27;4.53;;;;;;;8.36;91.53;102505.59;5031976;27;97226;-29
2023/04/08 04:40:35;;;;;;;9.98;4.88;;;;;;;8.37;91.17;102501.09;5031583;28;96729;-29
2023/04/08 04:43:01;;;;;;;12.35;5.15;;;;;;;8.36;91.13;102502.00;5030950;28;96858;-31
2023/04/08 04:45:26;;;;;;;6.35;3.63;;;;;;;8.35;91.20;102503.84;5032063;27;97911;-30
2023/04/08 04:47:51;;;;;;;7.70;4.97;;;;;;;8.35;91.18;102509.25;5031885;28;97637;-29
2023/04/08 04:50:17;;;;;;;10.93;4.93;;;;;;;8.34;91.18;102511.97;5031586;28;96439;-29
2023/04/08 04:52:42;;;;;;;7.60;4.55;;;;;;;8.36;91.35;102516.41;5032325;27;96778;-29
2023/04/08 04:55:08;;;;;;;14.85;5.28;;;;;;;8.35;91.56;102516.47;5032669;27;99014;-30
2023/04/08 04:57:33;;;;;;;7.28;3.85;;;;;;;8.33;91.43;102524.59;5035235;27;98399;-30
2023/04/08 04:59:59;;;;;;;8.30;4.43;;;;;;;8.33;91.63;102524.59;5035215;27;96678;-29
2023/04/08 05:02:24;;;;;;;8.98;4.03;;;;;;;8.34;91.18;102529.03;5034938;27;96822;-30
2023/04/08 05:04:52;;;;;;;9.13;4.43;;;;;;;8.33;91.23;102527.28;5034856;27;97879;-29
2023/04/08 05:07:18;;;;;;;8.20;3.85;;;;;;;8.30;91.38;102530.94;5033884;28;100964;-29
2023/04/08 05:09:43;;;;;;;10.30;5.47;;;;;;;8.27;91.66;102522.03;5035259;27;96571;-29
2023/04/08 05:12:08;;;;;;;9.07;4.13;;;;;;;8.23;91.56;102520.34;5035277;27;96740;-30
2023/04/08 05:14:34;;;;;;;6.38;4.13;;;;;;;8.21;91.52;102524.91;5034712;27;100585;-29
2023/04/08 05:16:59;;;;;;;9.48;4.30;;;;;;;8.24;91.83;102533.78;5034839;27;98941;-30
2023/04/08 05:19:25;;;;;;;9.50;4.85;;;;;;;8.21;92.27;102524.91;5034363;27;96718;-30
2023/04/08 05:21:50;;;;;;;9.18;4.82;;;;;;;8.21;91.86;102533.00;5032169;28;97116;-30
2023/04/08 05:24:15;;;;;;;9.70;4.45;;;;;;;8.23;91.94;102533.84;5032266;27;99523;-30
2023/04/08 05:26:41;;;;;;;8.80;4.72;;;;;;;8.19;91.64;102532.13;5032080;27;97823;-32
2023/04/08 05:29:06;;;;;;;8.18;4.75;;;;;;;8.19;92.12;102535.72;5032214;27;101693;-32
2023/04/08 05:31:31;;;;;;;7.30;4.35;;;;;;;8.19;92.10;102540.22;5033016;27;97058;-30
2023/04/08 05:33:57;;;;;;;8.10;4.35;;;;;;;8.14;92.68;102540.34;5032176;27;99625;-31
2023/04/08 05:36:22;;;;;;;7.07;4.43;;;;;;;8.10;92.50;102538.63;5033647;27;97334;-29
2023/04/08 05:38:47;;;;;;;7.75;4.10;;;;;;;8.12;93.02;102550.28;5033916;27;104875;-29
2023/04/08 05:41:13;;;;;;;8.48;3.92;;;;;;;8.11;92.70;102548.53;5034536;27;96769;-29
2023/04/08 05:43:38;;;;;;;11.85;4.55;;;;;;;8.12;92.72;102553.00;5034296;27;99807;-30
2023/04/08 05:46:08;;;;;;;7.07;3.65;;;;;;;8.14;92.72;102552.97;5034841;27;97222;-30
2023/04/08 05:48:33;;;;;;;6.82;4.55;;;;;;;8.13;92.28;102564.66;5033149;28;96648;-29
2023/04/08 05:50:59;;;;;;;5.80;3.78;;;;;;;8.11;93.15;102570.13;5034765;27;96757;-29
2023/04/08 05:53:25;;;;;;;7.65;4.47;;;;;;;8.10;92.88;102562.94;5034162;28;99262;-30
2023/04/08 05:55:50;;;;;;;9.30;3.58;;;;;;;8.07;92.81;102571.97;5034557;27;97813;-29
2023/04/08 05:58:15;;;;;;;10.05;4.25;;;;;;;8.08;93.41;102571.09;5034531;28;96599;-30
2023/04/08 06:00:40;;;;;;;7.55;4.30;;;;;;;8.06;92.98;102572.03;5034469;27;96782;-29
2023/04/08 06:03:06;;;;;;;9.55;4.38;;;;;;;8.05;93.58;102576.53;5034118;28;97498;-29
2023/04/08 06:05:31;;;;;;;7.15;4.60;;;;;;;8.02;93.53;102573.91;5033485;27;99274;-31
2023/04/08 06:07:56;;;;;;;6.60;4.28;;;;;;;8.04;92.94;102584.69;5034428;27;96485;-29
2023/04/08 06:10:22;;;;;;;6.85;3.63;;;;;;;8.04;93.47;102590.06;5034208;27;96866;-29
2023/04/08 06:12:47;;;;;;;7.13;3.80;;;;;;;8.02;93.05;102591.91;5034360;27;97355;-31
2023/04/08 06:15:12;;;;;;;5.60;3.38;;;;;;;8.00;93.54;102597.34;5034257;27;103832;-29
2023/04/08 06:17:38;;;;;;;6.20;3.92;;;;;;;7.97;92.82;102591.13;5034295;28;96777;-30
2023/04/08 06:20:05;;;;;;;7.63;3.60;;;;;;;7.98;93.09;102591.09;5034458;27;96917;-30
2023/04/08 06:22:31;;;;;;;7.15;3.47;;;;;;;8.02;93.22;102602.72;5031815;28;101203;-29
2023/04/08 06:24:56;;;;;;;7.63;3.95;;;;;;;8.01;93.36;102604.53;5033867;27;97810;-29
2023/04/08 06:27:21;;;;;;;5.50;3.47;;;;;;;7.98;93.99;102601.88;5033282;27;96945;-29
2023/04/08 06:29:47;;;;;;;5.22;3.38;;;;;;;7.99;93.57;102600.97;5034121;27;96719;-30
2023/04/08 06:32:13;;;;;;;4.20;2.83;;;;;;;8.01;93.69;102612.63;5033825;27;97940;-30
2023/04/08 06:34:39;;;;;;;5.55;3.30;;;;;;;8.04;93.34;102608.97;5032401;28;100798;-31
2023/04/08 06:37:05;;;;;;;6.57;3.47;;;;;;;8.00;93.47;102616.22;5034078;27;96480;-29
2023/04/08 06:39:30;;;;;;;5.85;2.50;;;;;;;8.02;93.40;102611.69;5033606;27;96941;-30
2023/04/08 06:41:58;;;;;;;5.43;3.30;;;;;;;8.03;93.21;102618.88;5033569;28;97956;-31
2023/04/08 06:44:23;;;;;;;7.13;2.97;;;;;;;8.08;93.13;102627.75;5033825;27;99477;-30
2023/04/08 06:46:49;;;;;;;5.78;3.30;;;;;;;8.02;93.19;102625.19;5033830;27;96628;-29
2023/04/08 06:49:14;;;;;;;3.72;2.47;;;;;;;8.05;93.12;102632.31;5033489;27;96804;-29
2023/04/08 06:51:40;;;;;;;6.28;2.60;;;;;;;8.05;93.39;102629.63;5031645;28;101060;-30
2023/04/08 06:54:05;;;;;;;5.85;3.35;;;;;;;8.06;93.24;102631.41;5033503;27;97768;-29
2023/04/08 06:56:30;;;;;;;3.22;2.03;;;;;;;8.06;93.31;102634.13;5033614;28;96736;-29
2023/04/08 06:58:56;;;;;;;5.18;2.63;;;;;;;8.06;93.56;102642.22;5033307;28;103611;-29
2023/04/08 07:01:21;;;;;;;6.05;2.95;;;;;;;8.06;92.70;102644.91;5032700;27;113679;-29
2023/04/08 07:03:46;;;;;;;3.47;2.55;;;;;;;8.03;93.51;102636.84;5033198;27;99765;-30
2023/04/08 07:06:12;;;;;;;4.95;2.58;;;;;;;8.06;93.57;102651.19;5033080;27;110153;-30
2023/04/08 07:08:37;;;;;;;4.95;2.47;;;;;;;8.07;93.18;102647.56;5033261;27;103999;-29
2023/04/08 07:11:03;;;;;;;5.78;3.28;;;;;;;8.09;93.20;102659.22;5033081;27;99567;-32
2023/04/08 07:13:28;;;;;;;5.32;2.63;;;;;;;8.12;93.50;102649.28;5033281;27;97806;-29
2023/04/08 07:15:53;;;;;;;7.38;4.13;;;;;;;8.11;93.40;102661.00;5031042;28;108991;-29
2023/04/08 07:18:20;;;;;;;5.18;2.95;;;;;;;8.13;92.92;102657.34;5031966;27;97139;-31
2023/04/08 07:20:50;;;;;;;4.70;3.05;;;;;;;8.11;93.89;102664.59;5033047;27;98091;-29
2023/04/08 07:23:15;;;;;;;4.63;2.95;;;;;;;8.05;94.03;102665.59;5030840;27;100524;-30
2023/04/08 07:25:40;;;;;;;5.85;3.28;;;;;;;8.05;94.19;102670.97;5033205;28;96671;-29
2023/04/08 07:28:06;;;;;;;5.38;3.00;;;;;;;8.05;93.74;102679.06;5032563;28;104297;-30
2023/04/08 07:30:31;;;;;;;5.75;3.60;;;;;;;8.07;93.22;102677.25;5032647;27;99465;-30
2023/04/08 07:32:57;;;;;;;4.55;2.90;;;;;;;8.09;93.53;102679.91;5033306;27;97362;-29
2023/04/08 07:35:23;;;;;;;3.83;2.38;;;;;;;8.09;93.45;102683.50;5033035;27;96870;-30
2023/04/08 07:37:50;;;;;;;6.40;3.90;;;;;;;8.07;93.05;102669.13;5031431;28;96874;-30
2023/04/08 07:40:16;;;;;;;7.55;4.13;;;;;;;8.15;93.18;102674.41;5030698;28;101490;-30
2023/04/08 07:42:41;;;;;;;5.63;3.25;;;;;;;8.17;93.00;102683.31;5031204;28;98909;-29
2023/04/08 07:45:07;;;;;;;4.68;3.00;;;;;;;8.19;92.66;102683.31;5033031;27;96747;-29
2023/04/08 07:47:32;;;;;;;8.77;3.80;;;;;;;8.21;92.66;102678.75;5032896;27;96839;-30
2023/04/08 07:49:57;;;;;;;8.18;3.63;;;;;;;8.17;92.75;102683.31;5032627;27;97639;-30
2023/04/08 07:52:23;;;;;;;6.63;3.47;;;;;;;8.24;92.64;102686.78;5032492;27;97791;-30
2023/04/08 07:54:48;;;;;;;5.65;3.47;;;;;;;8.26;92.16;102687.63;5032484;27;96611;-30
2023/04/08 07:57:13;;;;;;;7.57;4.13;;;;;;;8.27;92.38;102686.69;5033000;27;96819;-29
2023/04/08 07:59:39;;;;;;;6.97;3.80;;;;;;;8.33;92.51;102683.00;5032582;27;97737;-30
2023/04/08 08:02:04;;;;;;;6.22;3.50;;;;;;;8.33;92.76;102681.19;5032252;27;99815;-30
2023/04/08 08:04:30;;;;;;;9.27;4.10;;;;;;;8.37;91.82;102685.59;5031791;27;96711;-29
2023/04/08 08:06:55;;;;;;;6.20;3.63;;;;;;;8.37;92.14;102684.72;5032166;27;96681;-30
2023/04/08 08:09:21;;;;;;;12.77;5.18;;;;;;;8.38;92.31;102689.19;5031927;27;103319;-30
2023/04/08 08:11:46;;;;;;;9.13;4.15;;;;;;;8.42;91.64;102690.94;5032046;28;104406;-29
2023/04/08 08:14:13;;;;;;;5.68;3.80;;;;;;;8.44;91.73;102689.09;5032293;27;96710;-29
2023/04/08 08:16:38;;;;;;;6.97;4.03;;;;;;;8.51;91.56;102698.81;5031042;28;96813;-29
2023/04/08 08:19:06;;;;;;;10.00;5.05;;;;;;;8.56;91.09;102702.31;5032214;28;101279;-30
2023/04/08 08:21:31;;;;;;;7.82;5.10;;;;;;;8.56;91.02;102699.59;5031967;27;99780;-30
2023/04/08 08:23:58;;;;;;;10.18;5.47;;;;;;;8.53;91.77;102704.16;5031960;27;97008;-30
2023/04/08 08:26:24;;;;;;;9.15;4.63;;;;;;;8.53;91.88;102702.34;5030718;28;96895;-30
2023/04/08 08:28:49;;;;;;;7.78;4.53;;;;;;;8.61;91.67;102704.91;5031147;27;97864;-30
2023/04/08 08:31:14;;;;;;;9.00;4.78;;;;;;;8.67;91.66;102702.03;5031872;27;99680;-30
2023/04/08 08:33:40;;;;;;;10.77;5.47;;;;;;;8.75;91.88;102702.75;5031641;27;104120;-29
2023/04/08 08:36:06;;;;;;;10.50;5.82;;;;;;;8.77;91.61;102706.31;5032228;27;96820;-29
2023/04/08 08:38:31;;;;;;;10.00;5.15;;;;;;;8.82;91.56;102707.09;5031648;27;99272;-32
2023/04/08 08:40:58;;;;;;;10.20;5.05;;;;;;;8.88;91.02;102714.13;5031897;27;97411;-30
2023/04/08 08:43:24;;;;;;;9.88;5.70;;;;;;;8.97;90.90;102715.75;5030670;28;96709;-29
2023/04/08 08:45:50;;;;;;;10.77;5.60;;;;;;;8.99;90.49;102716.59;5031015;28;96812;-30
2023/04/08 08:48:16;;;;;;;8.43;5.38;;;;;;;9.07;91.33;102719.97;5031516;27;99823;-31
2023/04/08 08:50:41;;;;;;;11.65;6.05;;;;;;;9.16;90.21;102721.56;5031343;27;98293;-32
2023/04/08 08:53:07;;;;;;;10.02;6.00;;;;;;;9.23;90.05;102715.97;5031467;27;96501;-30
2023/04/08 08:55:32;;;;;;;10.10;6.15;;;;;;;9.32;90.16;102723.84;5031936;27;96764;-29
2023/04/08 08:57:59;;;;;;;12.57;5.97;;;;;;;9.38;90.13;102724.59;5031555;27;99647;-30
2023/04/08 09:00:38;;;;;;;11.10;5.82;;;;;;;9.44;89.72;102721.72;5031539;27;97851;-30
2023/04/08 09:03:12;;;;;;;12.85;6.65;;;;;;;9.58;89.52;102724.94;5030284;28;96702;-30
2023/04/08 09:05:58;;;;;;;10.95;5.50;;;;;;;9.62;89.03;102725.75;5031491;28;96855;-30
2023/04/08 09:08:28;;;;;;;9.02;5.63;;;;;;;9.69;89.47;102716.53;5030142;28;99005;-29
2023/04/08 09:10:55;;;;;;;12.60;6.22;;;;;;;9.81;88.86;102718.03;5030451;28;100848;-30
2023/04/08 09:13:24;;;;;;;12.25;5.97;;;;;;;9.93;88.20;102714.97;5030169;27;96780;-29
2023/04/08 09:16:03;;;;;;;13.48;6.22;;;;;;;9.98;88.32;102718.41;5031488;27;96595;-29
2023/04/08 09:18:29;;;;;;;11.43;5.88;;;;;;;10.19;88.42;102720.50;5029484;28;101048;-29
2023/04/08 09:20:54;;;;;;;12.52;6.75;;;;;;;10.53;87.43;102714.06;5030062;28;98848;-31
2023/04/08 09:23:20;;;;;;;12.98;7.45;;;;;;;10.87;86.10;102721.16;5031048;28;98333;-30
2023/04/08 09:25:45;;;;;;;12.38;5.78;;;;;;;11.34;84.50;102705.06;5031304;27;96856;-29
2023/04/08 09:28:20;;;;;;;12.57;6.75;;;;;;;11.68;82.81;102712.03;5031323;27;97295;-30
2023/04/08 09:30:45;;;;;;;9.85;5.38;;;;;;;12.02;82.29;102708.09;5029982;28;100891;-29
2023/04/08 09:33:11;;;;;;;11.25;6.22;;;;;;;12.41;80.45;102716.53;5031225;27;96555;-30
2023/04/08 09:35:36;;;;;;;10.57;6.47;;;;;;;12.75;79.29;102705.22;5031862;27;96817;-29
2023/04/08 09:38:02;;;;;;;10.18;6.43;;;;;;;13.06;77.85;102709.38;5031059;27;100443;-29
2023/04/08 09:40:31;;;;;;;15.30;6.45;;;;;;;13.32;76.86;102718.28;5031297;27;97277;-30
2023/04/08 09:43:00;;;;;;;10.02;5.93;;;;;;;13.49;75.97;102707.56;5032578;28;97070;-31
2023/04/08 09:45:26;;;;;;;10.32;5.70;;;;;;;13.74;75.67;102715.50;5033091;28;96977;-30
2023/04/08 09:48:01;;;;;;;10.15;5.68;;;;;;;13.95;74.88;102699.16;5032854;28;101253;-31
2023/04/08 09:50:31;;;;;;;8.18;5.20;;;;;;;14.12;74.30;102707.41;5033019;28;100828;-30
2023/04/08 09:53:08;;;;;;;11.02;6.00;;;;;;;14.38;74.28;102706.19;5033136;28;96728;-29
2023/04/08 09:55:36;;;;;;;10.65;5.40;;;;;;;14.64;72.56;102706.81;5034982;28;96853;-30
2023/04/08 09:58:07;;;;;;;9.82;5.90;;;;;;;14.84;72.06;102708.53;5032840;28;101454;-29
2023/04/08 10:00:49;;;;;;;10.70;6.00;;;;;;;14.97;71.36;102708.81;5017291;28;101221;-30
2023/04/08 10:03:30;;;;;;;11.77;6.18;;;;;;;15.14;71.46;102710.72;5034638;27;96636;-29
2023/04/08 10:06:00;;;;;;;11.13;6.57;;;;;;;15.05;70.16;102709.31;5032919;28;96818;-30
2023/04/08 10:08:26;;;;;;;11.68;7.20;;;;;;;15.24;71.08;102703.81;5032270;28;101328;-31
2023/04/08 10:10:53;;;;;;;9.82;6.28;;;;;;;15.31;68.59;102712.56;5032678;28;100959;-30
2023/04/08 10:13:19;;;;;;;15.45;6.95;;;;;;;15.49;69.09;102703.41;5034364;27;96728;-29
2023/04/08 10:15:46;;;;;;;15.75;6.35;;;;;;;15.60;68.00;102703.72;5032827;28;96763;-31
2023/04/08 10:18:13;;;;;;;16.52;8.07;;;;;;;15.81;68.67;102709.06;5033760;27;99103;-30
2023/04/08 10:20:38;;;;;;;11.20;6.97;;;;;;;15.95;68.36;102703.72;5032757;28;101160;-31
2023/04/08 10:23:08;;;;;;;12.93;6.50;;;;;;;15.98;67.52;102705.41;5033776;28;96785;-29
2023/04/08 10:25:34;;;;;;;9.88;6.32;;;;;;;15.99;67.09;102701.69;5032924;27;96846;-30
2023/04/08 10:28:02;;;;;;;8.50;5.35;;;;;;;16.19;66.64;102697.88;5033453;27;99883;-30
2023/04/08 10:30:27;;;;;;;9.98;5.32;;;;;;;16.34;66.81;102705.19;5032484;28;101002;-31
2023/04/08 10:32:56;;;;;;;8.23;5.38;;;;;;;16.44;66.13;102705.56;5033462;28;96676;-30
2023/04/08 10:35:29;;;;;;;7.47;5.07;;;;;;;16.39;62.95;102704.94;5033831;27;96805;-29
2023/04/08 10:37:54;;;;;;;7.05;4.68;;;;;;;16.50;64.34;102708.84;5032328;28;101273;-30
2023/04/08 10:40:20;;;;;;;7.57;4.90;;;;;;;16.54;63.21;102701.31;5033602;28;97795;-32
2023/04/08 10:42:45;;;;;;;8.23;4.65;;;;;;;16.45;63.24;102705.50;5033753;27;96604;-29
2023/04/08 10:45:16;;;;;;;7.57;5.10;;;;;;;16.64;63.47;102707.19;5033537;28;96504;-29
2023/04/08 10:47:42;;;;;;;7.35;4.55;;;;;;;16.64;62.54;102699.84;5032050;28;101526;-29
2023/04/08 10:50:18;;;;;;;7.32;5.28;;;;;;;16.68;63.34;102703.28;5033609;28;99238;-30
2023/04/08 10:52:51;;;;;;;8.25;5.35;;;;;;;16.73;63.48;102702.06;5033536;27;96969;-29
2023/04/08 10:55:26;;;;;;;8.32;5.00;;;;;;;16.81;62.97;102704.38;5033559;28;96835;-29
2023/04/08 10:57:52;;;;;;;11.75;5.07;;;;;;;16.63;62.14;102691.72;5032734;27;99184;-29
2023/04/08 11:00:19;;;;;;;7.88;4.60;;;;;;;16.74;61.56;102701.06;5031989;28;100779;-29
2023/04/08 11:02:44;;;;;;;7.78;4.80;;;;;;;16.90;61.39;102703.84;5033440;27;96647;-30
2023/04/08 11:05:10;;;;;;;7.53;4.60;;;;;;;17.03;61.73;102703.13;5033657;27;96831;-30
2023/04/08 11:07:40;;;;;;;7.93;5.03;;;;;;;17.27;62.18;102701.63;5031779;28;101263;-29
2023/04/08 11:10:07;;;;;;;7.57;4.55;;;;;;;17.33;60.56;102701.28;5031729;28;100928;-30
2023/04/08 11:12:33;;;;;;;6.43;4.25;;;;;;;17.33;59.86;102701.28;5031801;28;97395;-30
2023/04/08 11:14:58;;;;;;;7.60;4.43;;;;;;;17.25;60.42;102695.38;5033791;28;96768;-29
2023/04/08 11:17:24;;;;;;;11.27;4.75;;;;;;;17.38;60.56;102701.00;5033197;27;98430;-30
2023/04/08 11:19:49;;;;;;;6.53;4.57;;;;;;;17.41;60.67;102701.69;5033199;27;97809;-31
2023/04/08 11:22:16;;;;;;;10.27;5.13;;;;;;;17.56;58.90;102701.72;5032405;27;96823;-29
2023/04/08 11:24:41;;;;;;;7.97;5.30;;;;;;;17.58;57.93;102692.44;5031633;28;96946;-30
2023/04/08 11:27:07;;;;;;;7.90;4.57;;;;;;;17.46;57.50;102706.88;5032606;27;97349;-30